Time;durP1;ratioP1;P1;durP2;ratioP2;P2;SDS_P1;SDS_P2;PMS_P1;PMS_P2;Temp;Humidity;BMP_temperature;BMP_pressure;BME280_temperature;BME280_humidity;BME280_pressure;Samples;Min_cycle;Max_cycle;Signal;HPM_P1;HPM_P2
2022/01/11 00:00:19;;;;;;;;;15.50;12.75;;;;;22.64;39.84;102656.63;5045192;28;45502;-70
2022/01/11 00:02:45;;;;;;;;;11.00;8.75;;;;;22.38;40.10;102614.72;5052799;28;45407;-69
2022/01/11 00:07:51;;;;;;;;;11.00;10.00;;;;;22.63;39.80;102668.22;5047861;28;45701;-72
2022/01/11 00:10:28;;;;;;;;;12.00;10.00;;;;;22.67;40.02;102682.03;5043041;28;45427;-71
2022/01/11 00:12:55;;;;;;;;;10.00;9.25;;;;;22.66;39.97;102673.25;5050532;28;45652;-70
2022/01/11 00:15:20;;;;;;;;;14.50;11.50;;;;;22.67;39.69;102674.06;5049119;28;47094;-71
2022/01/11 00:17:45;;;;;;;;;11.75;10.50;;;;;22.58;39.53;102671.31;5040433;28;45456;-71
2022/01/11 00:20:16;;;;;;;;;14.00;12.00;;;;;22.67;39.71;102682.03;5045231;28;45368;-70
2022/01/11 00:25:38;;;;;;;;;12.00;9.50;;;;;22.68;40.04;102687.22;4995658;28;45371;-67
2022/01/11 00:28:05;;;;;;;;;10.75;9.75;;;;;22.68;40.16;102691.69;4978555;28;45490;-71
2022/01/11 00:30:33;;;;;;;;;9.50;8.50;;;;;22.58;39.64;102681.91;4977906;28;45502;-71
2022/01/11 00:33:01;;;;;;;;;13.50;10.50;;;;;22.68;39.59;102687.22;4983116;28;45588;-70
2022/01/11 00:35:38;;;;;;;;;14.75;10.00;;;;;22.68;39.36;102689.03;5002757;28;46153;-70
2022/01/11 00:38:04;;;;;;;;;9.50;9.50;;;;;22.67;39.16;102690.84;4990144;28;45478;-71
2022/01/11 00:40:29;;;;;;;;;11.00;9.00;;;;;22.60;39.62;102687.91;4995222;28;45613;-72
2022/01/11 00:42:59;;;;;;;;;8.00;5.75;;;;;22.69;38.72;102696.03;4993392;28;45474;-73
2022/01/11 00:45:26;;;;;;;;;12.25;9.50;;;;;22.69;39.24;102702.13;4988368;28;46290;-72
2022/01/11 00:47:51;;;;;;;;;12.00;10.75;;;;;22.60;39.25;102692.38;4980038;28;45358;-72
2022/01/11 00:50:18;;;;;;;;;8.50;8.50;;;;;22.62;38.64;102691.25;5006692;28;45601;-73
2022/01/11 00:52:43;;;;;;;;;10.50;10.50;;;;;22.58;38.59;102694.34;5009489;28;45491;-72
2022/01/11 00:55:09;;;;;;;;;11.75;10.25;;;;;22.59;38.65;102694.19;5002488;28;46745;-72
2022/01/11 00:57:34;;;;;;;;;11.00;9.50;;;;;22.66;38.84;102705.09;4993642;28;45402;-72
2022/01/11 00:59:59;;;;;;;;;11.50;10.25;;;;;22.62;38.63;102703.69;4987524;28;45843;-72
2022/01/11 01:02:25;;;;;;;;;12.50;8.25;;;;;22.64;38.88;102712.34;5026320;28;45577;-72
2022/01/11 01:04:50;;;;;;;;;12.75;11.00;;;;;22.64;38.99;102712.34;5053404;28;45619;-72
2022/01/11 01:07:16;;;;;;;;;8.75;8.75;;;;;22.63;38.25;102710.66;5056659;28;45430;-72
2022/01/11 01:09:58;;;;;;;;;11.75;9.00;;;;;22.63;38.65;102710.66;5055725;28;45482;-72
2022/01/11 01:12:23;;;;;;;;;9.75;8.50;;;;;22.58;38.88;102708.44;5050424;28;45364;-72
2022/01/11 01:14:49;;;;;;;;;11.00;9.50;;;;;22.61;38.28;102712.63;5048807;28;45539;-72
2022/01/11 01:17:14;;;;;;;;;9.75;9.75;;;;;22.53;38.25;102700.06;5038002;28;47722;-72
2022/01/11 01:19:39;;;;;;;;;9.75;9.75;;;;;22.54;38.68;102701.72;5053476;28;45638;-72
2022/01/11 01:22:05;;;;;;;;;7.25;6.75;;;;;22.60;38.66;102717.09;5042583;28;45292;-72
2022/01/11 01:24:30;;;;;;;;;10.75;9.75;;;;;22.59;38.68;102720.72;5046003;28;45955;-72
2022/01/11 01:26:56;;;;;;;;;12.50;9.75;;;;;22.59;38.77;102727.81;5051623;28;45455;-72
2022/01/11 01:29:21;;;;;;;;;11.25;10.50;;;;;22.55;38.59;102724.63;5039388;28;45491;-72
2022/01/11 01:31:46;;;;;;;;;11.50;10.00;;;;;22.57;38.65;102729.78;5053575;28;45430;-72
2022/01/11 01:34:12;;;;;;;;;12.50;9.00;;;;;22.56;37.99;102728.94;5050858;28;46203;-72
2022/01/11 01:36:38;;;;;;;;;13.00;10.50;;;;;22.44;38.22;102706.19;5051814;28;45706;-72
2022/01/11 01:39:04;;;;;;;;;10.75;10.75;;;;;22.56;38.31;102728.13;5049903;28;45382;-72
2022/01/11 01:41:30;;;;;;;;;11.00;11.00;;;;;22.55;38.31;102737.03;5040309;28;45335;-72
2022/01/11 01:43:59;;;;;;;;;10.50;8.25;;;;;22.55;37.91;102735.25;5049358;28;46141;-72
2022/01/11 01:46:25;;;;;;;;;10.25;8.50;;;;;22.54;37.83;102736.19;5039889;28;45447;-72
2022/01/11 01:48:51;;;;;;;;;12.25;9.50;;;;;22.50;38.27;102726.84;5048080;28;45404;-72
2022/01/11 01:51:17;;;;;;;;;7.50;7.50;;;;;22.51;38.05;102729.34;5050357;28;45527;-72
2022/01/11 01:53:49;;;;;;;;;11.25;8.25;;;;;22.53;38.23;102739.84;5040716;28;46612;-72
2022/01/11 01:56:16;;;;;;;;;7.75;7.75;;;;;22.45;38.16;102723.78;5053918;28;45296;-72
2022/01/11 01:58:42;;;;;;;;;11.25;9.75;;;;;22.47;37.66;102725.31;5052754;28;45484;-72
2022/01/11 02:01:08;;;;;;;;;12.25;10.25;;;;;22.44;37.86;102725.59;5050131;28;45294;-72
2022/01/11 02:03:39;;;;;;;;;11.00;8.25;;;;;22.51;37.67;102734.66;5033960;28;46321;-72
2022/01/11 02:06:08;;;;;;;;;10.00;9.00;;;;;22.44;37.98;102728.22;5042408;28;45481;-72
2022/01/11 02:08:35;;;;;;;;;9.00;9.00;;;;;22.51;38.11;102736.47;5053293;28;45394;-72
2022/01/11 02:11:00;;;;;;;;;11.50;11.50;;;;;22.41;38.08;102725.84;5054753;28;45319;-72
2022/01/11 02:13:27;;;;;;;;;11.25;8.00;;;;;22.51;37.57;102741.78;5044220;28;46350;-72
2022/01/11 02:15:54;;;;;;;;;9.50;8.25;;;;;22.50;37.86;102743.63;5040261;28;45366;-72
2022/01/11 02:18:23;;;;;;;;;9.00;9.00;;;;;22.51;37.52;102758.53;5044814;28;45327;-72
2022/01/11 02:20:50;;;;;;;;;9.00;9.00;;;;;22.40;37.67;102737.44;5049856;28;45637;-72
2022/01/11 02:23:18;;;;;;;;;10.25;9.00;;;;;22.47;37.74;102749.19;5052530;28;45302;-72
2022/01/11 02:25:45;;;;;;;;;13.00;11.00;;;;;22.50;37.21;102751.56;5039211;28;45390;-72
2022/01/11 02:28:16;;;;;;;;;9.50;8.00;;;;;22.49;37.45;102757.00;5041819;28;45361;-72
2022/01/11 02:30:41;;;;;;;;;12.00;9.50;;;;;22.49;37.70;102751.69;5049931;28;45592;-72
2022/01/11 02:33:15;;;;;;;;;8.25;8.25;;;;;22.49;37.23;102757.00;5046358;28;46235;-72
2022/01/11 02:35:47;;;;;;;;;11.50;8.50;;;;;22.41;37.63;102736.47;5050184;28;45472;-72
2022/01/11 02:38:13;;;;;;;;;8.25;7.25;;;;;22.49;37.60;102751.69;5067304;28;45429;-72
2022/01/11 02:40:38;;;;;;;;;10.00;9.00;;;;;22.48;37.71;102752.69;5040554;28;45389;-72
2022/01/11 02:43:03;;;;;;;;;9.50;8.75;;;;;22.47;37.60;102762.44;5040816;28;46172;-72
2022/01/11 02:45:29;;;;;;;;;8.25;7.25;;;;;22.46;37.41;102758.09;5045662;28;45425;-72
2022/01/11 02:47:54;;;;;;;;;9.75;9.75;;;;;22.47;37.69;102751.84;5046606;28;45837;-72
2022/01/11 02:50:19;;;;;;;;;10.75;9.00;;;;;22.46;37.81;102746.66;5050277;28;45518;-73
2022/01/11 02:52:45;;;;;;;;;7.00;7.00;;;;;22.42;37.52;102737.31;5053734;28;45350;-72
2022/01/11 02:55:14;;;;;;;;;9.25;8.75;;;;;22.39;37.61;102741.06;5039047;28;45578;-72
2022/01/11 02:57:39;;;;;;;;;10.25;7.75;;;;;22.46;37.19;102747.50;5039372;28;45506;-72
2022/01/11 03:00:11;;;;;;;;;8.00;8.00;;;;;22.47;37.69;102751.84;5038973;28;45573;-70
2022/01/11 03:02:36;;;;;;;;;9.50;9.25;;;;;22.45;37.38;102748.50;5048166;28;46771;-72
2022/01/11 03:05:05;;;;;;;;;11.00;9.75;;;;;22.46;37.62;102750.16;5050856;28;45434;-70
2022/01/11 03:07:30;;;;;;;;;7.00;7.00;;;;;22.37;37.26;102743.88;5050165;28;45454;-72
2022/01/11 03:12:24;;;;;;;;;9.00;9.00;;;;;22.39;37.16;102739.25;5045797;28;45279;-72
2022/01/11 03:14:49;;;;;;;;;7.50;7.25;;;;;22.39;37.25;102751.69;5037852;28;45394;-72
2022/01/11 03:17:14;;;;;;;;;8.50;7.25;;;;;22.33;37.30;102737.13;5051148;28;45464;-72
2022/01/11 03:19:40;;;;;;;;;9.00;9.00;;;;;22.43;37.67;102761.03;5038436;28;45383;-72
2022/01/11 03:22:05;;;;;;;;;10.50;7.75;;;;;22.43;37.45;102753.06;5033661;28;46926;-72
2022/01/11 03:24:30;;;;;;;;;10.50;8.75;;;;;22.41;37.65;102755.03;5046355;28;45398;-72
2022/01/11 03:26:56;;;;;;;;;11.50;9.50;;;;;22.39;37.10;102747.22;5047434;28;45600;-72
2022/01/11 03:29:21;;;;;;;;;7.25;7.25;;;;;22.40;37.08;102745.41;5050833;28;45601;-72
2022/01/11 03:31:46;;;;;;;;;11.50;9.25;;;;;22.40;37.08;102754.19;5049686;28;46126;-72
2022/01/11 03:34:18;;;;;;;;;8.50;7.00;;;;;22.40;37.19;102753.38;5034688;28;45355;-72
2022/01/11 03:36:44;;;;;;;;;9.25;9.00;;;;;22.31;37.51;102741.75;5042161;28;45518;-72
2022/01/11 03:39:09;;;;;;;;;7.50;7.25;;;;;22.04;37.29;102704.28;5038723;28;45704;-72
2022/01/11 03:41:35;;;;;;;;;9.00;9.00;;;;;22.39;37.41;102756.97;5033551;28;47320;-72
2022/01/11 03:44:00;;;;;;;;;10.00;10.00;;;;;22.36;37.42;102742.19;5050298;28;45299;-71
2022/01/11 03:46:25;;;;;;;;;9.75;7.25;;;;;22.39;36.96;102762.28;5049688;28;45395;-72
2022/01/11 03:48:51;;;;;;;;;9.00;8.00;;;;;22.38;36.96;102756.13;5000535;28;1359820;-72
2022/01/11 03:51:16;;;;;;;;;11.75;9.00;;;;;22.38;37.50;102765.91;5050457;28;46189;-72
2022/01/11 03:53:53;;;;;;;;;7.50;7.50;;;;;22.38;36.97;102766.75;5052068;28;45528;-72
2022/01/11 03:56:22;;;;;;;;;7.50;7.00;;;;;22.39;37.00;102772.88;5037268;28;45462;-72
2022/01/11 03:58:49;;;;;;;;;8.25;7.00;;;;;22.39;36.83;102781.69;5050984;28;45510;-69
2022/01/11 04:01:14;;;;;;;;;7.25;6.00;;;;;22.30;36.79;102774.56;5053062;28;46437;-72
2022/01/11 04:03:40;;;;;;;;;9.00;7.00;;;;;22.38;36.88;102785.31;5048288;28;45287;-72
2022/01/11 04:06:05;;;;;;;;;8.00;7.00;;;;;22.28;36.88;102779.97;5049216;28;45521;-72
2022/01/11 04:08:31;;;;;;;;;8.25;8.25;;;;;22.40;36.64;102793.16;5050810;28;45364;-72
2022/01/11 04:10:56;;;;;;;;;7.00;6.00;;;;;22.38;36.75;102793.25;5056859;28;45995;-72
2022/01/11 04:13:22;;;;;;;;;6.50;5.50;;;;;22.38;37.13;102795.91;5039143;28;45298;-72
2022/01/11 04:15:47;;;;;;;;;6.50;6.50;;;;;22.38;36.87;102798.56;5031870;28;45661;-71
2022/01/11 04:18:13;;;;;;;;;7.00;7.00;;;;;22.38;36.75;102792.41;5046531;28;45445;-72
2022/01/11 04:20:38;;;;;;;;;5.50;5.50;;;;;22.37;37.21;102798.72;5037201;28;45472;-72
2022/01/11 04:23:06;;;;;;;;;7.75;7.50;;;;;22.37;36.72;102799.56;5051899;28;45328;-72
2022/01/11 04:25:31;;;;;;;;;7.50;7.50;;;;;22.38;37.02;102801.22;5050605;28;45427;-72
2022/01/11 04:27:56;;;;;;;;;10.25;8.50;;;;;22.37;36.88;102796.91;5040565;28;45374;-71
2022/01/11 04:30:22;;;;;;;;;9.00;6.00;;;;;22.33;37.12;102792.00;5038483;28;46048;-72
2022/01/11 04:32:48;;;;;;;;;8.50;7.25;;;;;22.33;37.25;102789.38;5049427;28;45430;-72
2022/01/11 04:35:16;;;;;;;;;10.00;6.75;;;;;22.30;37.20;102785.16;5044986;28;45493;-72
2022/01/11 04:37:42;;;;;;;;;10.00;8.00;;;;;22.36;36.82;102800.53;5042140;28;45367;-72
2022/01/11 04:40:08;;;;;;;;;7.00;7.00;;;;;22.35;36.74;102793.53;5052530;28;46309;-72
2022/01/11 04:42:33;;;;;;;;;6.75;6.75;;;;;22.35;37.20;102798.03;5053738;28;45259;-72
2022/01/11 04:44:58;;;;;;;;;7.50;7.50;;;;;22.34;36.93;102793.66;5051223;28;45343;-72
2022/01/11 04:47:24;;;;;;;;;8.00;7.25;;;;;22.34;37.09;102786.56;5054086;28;45448;-71
2022/01/11 04:49:49;;;;;;;;;7.50;5.00;;;;;22.34;36.61;102801.63;5047874;28;45979;-72
2022/01/11 04:52:14;;;;;;;;;8.50;7.50;;;;;22.30;36.72;102793.13;5052401;28;45403;-72
2022/01/11 04:54:40;;;;;;;;;7.00;7.00;;;;;22.07;37.14;102759.69;5051137;28;45464;-72
2022/01/11 04:57:06;;;;;;;;;7.00;6.00;;;;;22.33;36.78;102803.44;5050609;28;45568;-72
2022/01/11 04:59:32;;;;;;;;;7.00;7.00;;;;;22.26;36.86;102792.53;5037962;28;46204;-72
2022/01/11 05:01:57;;;;;;;;;7.00;6.25;;;;;22.34;36.66;102801.63;5053445;28;45471;-72
2022/01/11 05:04:22;;;;;;;;;8.00;7.00;;;;;22.33;37.08;102794.66;5055745;28;45584;-72
2022/01/11 05:06:48;;;;;;;;;6.00;5.75;;;;;22.33;36.55;102792.00;5045221;28;45473;-72
2022/01/11 05:09:13;;;;;;;;;6.25;6.00;;;;;22.32;36.60;102793.81;5045297;28;46115;-72
2022/01/11 05:11:38;;;;;;;;;7.25;6.50;;;;;22.32;36.93;102796.47;5050996;28;45285;-72
2022/01/11 05:14:04;;;;;;;;;7.00;7.00;;;;;22.20;36.67;102787.75;5054515;28;45483;-72
2022/01/11 05:16:29;;;;;;;;;7.00;7.00;;;;;22.28;36.87;102797.69;5042107;28;45390;-72
2022/01/11 05:18:54;;;;;;;;;8.25;7.75;;;;;22.29;36.68;102800.22;5041988;28;46272;-72
2022/01/11 05:21:20;;;;;;;;;8.00;7.00;;;;;22.27;36.52;102804.00;5046349;28;45280;-72
2022/01/11 05:23:45;;;;;;;;;7.25;6.25;;;;;22.32;36.61;102816.84;5050933;28;45340;-72
2022/01/11 05:26:10;;;;;;;;;7.00;7.00;;;;;22.29;36.39;102805.53;5028638;28;45556;-71
2022/01/11 05:28:36;;;;;;;;;6.00;5.75;;;;;22.30;36.52;102811.69;5041517;28;45838;-72
2022/01/11 05:31:03;;;;;;;;;5.25;5.25;;;;;22.31;36.85;102818.66;5048322;28;45525;-72
2022/01/11 05:33:28;;;;;;;;;5.00;5.00;;;;;22.31;36.59;102826.59;5050650;28;45378;-72
2022/01/11 05:35:54;;;;;;;;;5.25;5.25;;;;;22.31;36.82;102823.94;5050246;28;45413;-72
2022/01/11 05:38:19;;;;;;;;;7.00;6.75;;;;;22.26;36.56;102818.22;5054330;28;47052;-72
2022/01/11 05:40:45;;;;;;;;;7.75;6.50;;;;;22.22;36.25;102817.66;5052674;28;45375;-72
2022/01/11 05:43:12;;;;;;;;;8.00;6.25;;;;;22.21;36.65;102813.31;5051470;28;45560;-72
2022/01/11 05:45:38;;;;;;;;;5.25;5.25;;;;;22.27;36.73;102826.06;5045715;28;45330;-71
2022/01/11 05:48:04;;;;;;;;;7.00;7.00;;;;;22.22;36.81;102830.06;5040297;28;45482;-72
2022/01/11 05:50:30;;;;;;;;;8.25;7.25;;;;;22.29;36.45;102833.84;5040235;28;45450;-72
2022/01/11 05:52:56;;;;;;;;;7.25;7.25;;;;;22.27;36.59;102833.16;5055632;28;45402;-72
2022/01/11 05:55:21;;;;;;;;;4.00;4.00;;;;;22.26;36.14;102834.13;5047880;28;45550;-72
2022/01/11 05:57:46;;;;;;;;;6.25;6.25;;;;;22.30;36.10;102843.50;5051840;28;46168;-72
2022/01/11 06:00:18;;;;;;;;;8.50;5.75;;;;;22.21;36.58;102828.38;5048327;28;45317;-72
2022/01/11 06:02:47;;;;;;;;;6.50;6.50;;;;;22.30;36.74;102846.16;5049155;28;45283;-71
2022/01/11 06:05:13;;;;;;;;;6.50;5.00;;;;;22.28;36.49;102842.78;5052835;28;45501;-72
2022/01/11 06:07:39;;;;;;;;;5.50;5.25;;;;;22.29;36.22;102841.81;5040863;28;47137;-72
2022/01/11 06:10:05;;;;;;;;;5.00;5.00;;;;;22.24;36.67;102839.56;5041081;28;45473;-72
2022/01/11 06:12:30;;;;;;;;;7.00;6.25;;;;;22.27;36.81;102846.41;5046106;28;45419;-72
2022/01/11 06:14:56;;;;;;;;;5.75;5.75;;;;;22.28;36.18;102848.06;5049780;28;45356;-72
2022/01/11 06:17:21;;;;;;;;;9.00;8.00;;;;;22.28;36.62;102851.56;5053175;28;46489;-72
2022/01/11 06:19:46;;;;;;;;;4.75;4.75;;;;;22.26;36.93;102845.56;5036378;28;45275;-72
2022/01/11 06:22:12;;;;;;;;;7.75;5.00;;;;;22.28;36.45;102851.56;5050643;28;45681;-72
2022/01/11 06:24:37;;;;;;;;;7.25;6.00;;;;;22.23;36.66;102843.19;5050237;28;45354;-72
2022/01/11 06:27:03;;;;;;;;;6.00;5.00;;;;;22.27;36.72;102857.88;5050462;28;45996;-72
2022/01/11 06:29:28;;;;;;;;;6.00;6.00;;;;;22.27;36.21;102857.88;5052590;28;45452;-72
2022/01/11 06:31:53;;;;;;;;;5.25;5.25;;;;;22.28;36.72;102864.00;5037167;28;45374;-72
2022/01/11 06:34:19;;;;;;;;;6.25;5.75;;;;;22.23;36.30;102858.25;5054048;28;45364;-72
2022/01/11 06:36:44;;;;;;;;;7.75;7.00;;;;;22.27;36.58;102872.94;5036296;28;46037;-72
2022/01/11 06:39:09;;;;;;;;;6.00;6.00;;;;;22.27;36.18;102875.59;5053842;28;45307;-72
2022/01/11 06:41:35;;;;;;;;;5.50;5.25;;;;;22.26;36.71;102881.84;5052999;28;45258;-72
2022/01/11 06:44:01;;;;;;;;;8.00;8.00;;;;;22.22;36.24;102875.13;5054292;28;45485;-72
2022/01/11 06:46:26;;;;;;;;;6.00;6.00;;;;;22.20;36.54;102879.75;5056051;28;45236;-72
2022/01/11 06:48:52;;;;;;;;;6.25;5.50;;;;;22.23;36.50;102874.16;5053685;28;45334;-71
2022/01/11 06:51:18;;;;;;;;;8.25;6.50;;;;;22.20;36.80;102877.91;5052743;28;45374;-71
2022/01/11 06:53:45;;;;;;;;;7.75;6.00;;;;;22.25;36.49;102891.59;5050282;28;45449;-72
2022/01/11 06:56:10;;;;;;;;;5.75;5.75;;;;;22.18;35.86;102874.56;5035951;28;48292;-71
2022/01/11 06:58:35;;;;;;;;;6.00;5.00;;;;;22.24;36.63;102884.66;5051134;28;45361;-72
2022/01/11 07:01:01;;;;;;;;;4.75;4.75;;;;;22.24;36.48;102891.75;5042781;28;45398;-71
2022/01/11 07:03:27;;;;;;;;;6.00;4.75;;;;;22.25;36.55;102898.75;5045706;28;45539;-72
2022/01/11 07:05:53;;;;;;;;;8.00;6.25;;;;;22.12;36.66;102881.22;5043698;28;47108;-72
2022/01/11 07:08:18;;;;;;;;;10.00;7.75;;;;;22.25;36.09;102906.69;5036734;28;45509;-72
2022/01/11 07:10:44;;;;;;;;;8.25;7.00;;;;;22.25;36.15;102912.00;5039223;28;45398;-72
2022/01/11 07:13:09;;;;;;;;;7.75;6.00;;;;;22.26;36.48;102916.31;5050315;28;45709;-72
2022/01/11 07:15:34;;;;;;;;;7.50;7.50;;;;;22.20;36.58;102908.91;5049798;28;46210;-71
2022/01/11 07:18:04;;;;;;;;;8.25;7.00;;;;;22.15;36.22;102898.66;5048560;28;45557;-72
2022/01/11 07:20:30;;;;;;;;;4.25;4.25;;;;;22.18;35.86;102912.50;5051441;28;45501;-71
2022/01/11 07:22:55;;;;;;;;;6.00;6.00;;;;;22.25;36.47;102919.97;5036195;28;45461;-72
2022/01/11 07:25:22;;;;;;;;;4.00;4.00;;;;;22.20;36.33;102914.22;5050743;28;45452;-72
2022/01/11 07:27:47;;;;;;;;;8.25;7.00;;;;;22.25;36.36;102931.38;5048891;28;45371;-71
2022/01/11 07:30:13;;;;;;;;;7.75;6.00;;;;;22.25;36.00;102930.56;5048755;28;45462;-72
2022/01/11 07:32:38;;;;;;;;;6.50;4.00;;;;;22.25;36.07;102942.00;5041724;28;45414;-71
2022/01/11 07:35:04;;;;;;;;;5.00;5.00;;;;;22.25;36.60;102939.34;5063248;28;45378;-72
2022/01/11 07:37:30;;;;;;;;;5.00;4.00;;;;;22.21;36.62;102943.22;5051080;28;45493;-72
2022/01/11 07:39:55;;;;;;;;;6.25;6.00;;;;;22.25;35.92;102947.28;5048615;28;45441;-73
2022/01/11 07:42:21;;;;;;;;;6.00;5.00;;;;;22.23;36.52;102949.25;5042548;28;45442;-72
2022/01/11 07:44:50;;;;;;;;;5.75;5.00;;;;;22.25;36.90;102947.28;5052051;28;46072;-72
2022/01/11 07:47:16;;;;;;;;;6.25;5.25;;;;;22.26;36.25;102946.34;5053379;28;45555;-72
2022/01/11 07:49:41;;;;;;;;;4.00;4.00;;;;;22.26;36.29;102950.78;5054859;28;45565;-72
2022/01/11 07:52:07;;;;;;;;;6.00;6.00;;;;;22.17;36.15;102937.34;5039627;28;45681;-74
2022/01/11 07:54:33;;;;;;;;;6.75;5.50;;;;;22.29;36.64;102961.16;5039667;28;46443;-74
2022/01/11 07:56:58;;;;;;;;;6.00;6.00;;;;;22.29;36.77;102972.59;5042171;28;45430;-73
2022/01/11 07:59:24;;;;;;;;;5.00;5.00;;;;;22.29;36.71;102977.06;5048642;28;45417;-73
2022/01/11 08:01:49;;;;;;;;;5.00;5.00;;;;;22.29;36.45;102980.56;5051088;28;46306;-72
2022/01/11 08:04:14;;;;;;;;;6.00;4.75;;;;;22.29;36.69;102977.91;5038974;28;46261;-73
2022/01/11 08:06:40;;;;;;;;;4.25;4.25;;;;;22.22;36.13;102965.28;5039075;28;45527;-73
2022/01/11 08:09:07;;;;;;;;;7.50;6.00;;;;;22.26;36.56;102974.66;5039647;28;45247;-73
2022/01/11 08:11:33;;;;;;;;;4.50;4.00;;;;;22.31;36.64;102985.72;5040098;28;45385;-73
2022/01/11 08:13:58;;;;;;;;;6.00;6.00;;;;;22.18;36.26;102962.91;5054337;28;45567;-73
2022/01/11 08:16:24;;;;;;;;;4.50;4.50;;;;;22.22;36.57;102965.28;5061350;27;48232;-73
2022/01/11 08:18:49;;;;;;;;;5.50;5.00;;;;;22.33;36.69;102986.41;5054514;28;45430;-72
2022/01/11 08:21:14;;;;;;;;;4.00;4.00;;;;;22.31;36.64;102980.41;5055913;28;45359;-73
2022/01/11 08:23:39;;;;;;;;;7.50;7.50;;;;;22.26;36.32;102969.34;5056465;28;45378;-72
2022/01/11 08:26:05;;;;;;;;;6.00;5.50;;;;;22.34;36.32;102984.63;5055238;28;53120;-73
2022/01/11 08:28:31;;;;;;;;;5.50;4.00;;;;;22.34;36.80;102974.00;5059173;28;45468;-72
2022/01/11 08:30:57;;;;;;;;;3.25;3.25;;;;;22.24;36.50;102969.50;5043300;28;45487;-73
2022/01/11 08:33:23;;;;;;;;;5.00;5.00;;;;;22.30;36.72;102976.09;5048255;28;47321;-72
2022/01/11 08:35:49;;;;;;;;;4.00;4.00;;;;;22.26;36.71;102974.66;5050268;28;45267;-72
2022/01/11 08:38:15;;;;;;;;;6.00;6.00;;;;;22.30;36.38;102976.09;5040258;28;45403;-72
2022/01/11 08:40:40;;;;;;;;;4.50;4.50;;;;;22.37;36.10;102985.22;5038088;28;45389;-72
2022/01/11 08:43:05;;;;;;;;;6.75;6.00;;;;;22.24;36.25;102966.00;5032476;28;46811;-73
2022/01/11 08:45:33;;;;;;;;;5.00;5.00;;;;;22.38;36.70;102980.72;5051259;28;45530;-72
2022/01/11 08:47:59;;;;;;;;;4.75;3.00;;;;;22.39;36.57;102974.47;5052149;28;45530;-73
2022/01/11 08:50:25;;;;;;;;;4.00;4.00;;;;;22.37;36.34;102979.91;5043093;28;45424;-73
2022/01/11 08:52:50;;;;;;;;;5.00;5.00;;;;;22.39;36.20;102983.25;5040391;28;47069;-73
2022/01/11 08:55:16;;;;;;;;;4.75;4.75;;;;;22.41;36.25;102993.72;5039650;28;45324;-73
2022/01/11 08:57:42;;;;;;;;;5.00;5.00;;;;;22.43;36.50;102985.66;5045768;28;45354;-73
2022/01/11 09:00:16;;;;;;;;;4.00;4.00;;;;;22.43;36.62;102991.78;5042541;28;45604;-73
2022/01/11 09:02:46;;;;;;;;;6.00;5.00;;;;;22.27;36.10;102977.19;5034550;28;47326;-72
2022/01/11 09:05:12;;;;;;;;;5.75;5.75;;;;;22.45;36.09;102994.31;5056118;28;45325;-73
2022/01/11 09:07:37;;;;;;;;;3.50;3.50;;;;;22.45;36.04;102995.16;5053605;28;45431;-73
2022/01/11 09:10:05;;;;;;;;;5.75;5.75;;;;;22.46;36.08;103003.94;5055372;28;45728;-73
2022/01/11 09:12:30;;;;;;;;;5.00;5.00;;;;;22.35;36.45;102989.78;5048796;28;46006;-72
2022/01/11 09:14:55;;;;;;;;;3.25;2.00;;;;;22.46;36.25;103012.75;5042021;28;45584;-73
2022/01/11 09:17:21;;;;;;;;;4.50;4.50;;;;;22.46;36.06;103011.91;5039264;28;45595;-73
2022/01/11 09:19:46;;;;;;;;;5.50;4.50;;;;;22.46;36.19;103025.16;5040409;28;45319;-73
2022/01/11 09:22:12;;;;;;;;;6.50;4.00;;;;;22.47;36.22;103021.53;5054281;28;45446;-72
2022/01/11 09:24:37;;;;;;;;;4.25;4.25;;;;;22.47;36.64;103021.53;5050354;28;45273;-73
2022/01/11 09:27:04;;;;;;;;;4.25;4.00;;;;;22.31;36.06;102998.13;5050771;28;45762;-72
2022/01/11 09:29:32;;;;;;;;;5.75;5.00;;;;;22.47;36.25;103018.91;5053284;28;45442;-73
2022/01/11 09:31:59;;;;;;;;;6.00;5.00;;;;;22.48;36.23;103028.56;5055060;28;46342;-73
2022/01/11 09:34:25;;;;;;;;;4.00;4.00;;;;;22.47;36.12;103025.03;5051952;28;45561;-73
2022/01/11 09:36:51;;;;;;;;;5.00;5.00;;;;;22.48;36.15;103026.72;5050458;28;45327;-73
2022/01/11 09:39:16;;;;;;;;;5.00;5.00;;;;;22.48;36.49;103037.31;5049968;28;45581;-72
2022/01/11 09:41:42;;;;;;;;;4.50;4.50;;;;;22.44;36.09;103024.44;5050730;28;46981;-72
2022/01/11 09:44:07;;;;;;;;;4.00;4.00;;;;;22.48;36.12;103033.84;5053882;28;45398;-72
2022/01/11 09:46:33;;;;;;;;;6.00;6.00;;;;;22.49;36.46;103030.22;5056305;28;45448;-73
2022/01/11 09:48:59;;;;;;;;;6.00;5.25;;;;;22.46;36.18;103027.81;5051126;28;45958;-73
2022/01/11 09:51:24;;;;;;;;;5.00;5.00;;;;;22.38;35.94;103021.34;5055038;28;46135;-73
2022/01/11 09:53:51;;;;;;;;;4.75;4.75;;;;;22.37;36.45;103029.44;5054966;28;45449;-73
2022/01/11 09:56:17;;;;;;;;;5.75;4.00;;;;;22.49;36.06;103048.78;5055298;28;45367;-73
2022/01/11 09:58:45;;;;;;;;;3.75;3.75;;;;;22.49;35.97;103051.44;5057191;28;45442;-73
2022/01/11 10:01:10;;;;;;;;;4.00;4.00;;;;;22.49;35.98;103052.28;5043678;28;47065;-73
2022/01/11 10:03:54;;;;;;;;;5.00;5.00;;;;;22.49;36.08;103062.88;5049747;28;45633;-73
2022/01/11 10:06:21;;;;;;;;;4.00;4.00;;;;;22.50;36.47;103069.03;5051128;28;45637;-72
2022/01/11 10:08:47;;;;;;;;;3.75;3.75;;;;;22.51;36.06;103068.06;5041925;28;45385;-73
2022/01/11 10:11:12;;;;;;;;;3.00;3.00;;;;;22.52;36.58;103067.94;5038848;28;46051;-73
2022/01/11 10:13:40;;;;;;;;;4.25;4.00;;;;;22.52;36.37;103067.09;5052434;28;45476;-73
2022/01/11 10:16:22;;;;;;;;;4.25;4.25;;;;;22.52;36.42;103073.25;5049258;28;45437;-72
2022/01/11 10:18:48;;;;;;;;;3.25;3.25;;;;;22.53;36.05;103066.13;5050205;28;45532;-72
2022/01/11 10:21:40;;;;;;;;;3.25;3.00;;;;;22.49;36.55;103064.69;5049611;28;47147;-72
2022/01/11 10:24:33;;;;;;;;;3.75;3.75;;;;;22.47;36.75;103064.84;5050334;28;45419;-72
2022/01/11 10:27:08;;;;;;;;;4.00;4.00;;;;;22.55;36.01;103077.47;5041463;28;45640;-72
2022/01/11 10:29:40;;;;;;;;;5.00;4.75;;;;;22.56;36.36;103080.97;5038838;28;45327;-72
2022/01/11 10:32:26;;;;;;;;;5.50;5.50;;;;;22.56;35.98;103070.34;5044530;28;45497;-72
2022/01/11 10:34:55;;;;;;;;;5.00;5.00;;;;;22.56;35.86;103078.31;5058268;28;45453;-73
2022/01/11 10:37:48;;;;;;;;;4.00;4.00;;;;;22.57;36.16;103077.31;5051630;28;45378;-72
2022/01/11 10:40:19;;;;;;;;;4.75;4.75;;;;;22.56;35.80;103073.81;5046660;28;45540;-72
2022/01/11 10:42:49;;;;;;;;;3.75;3.75;;;;;22.55;35.91;103074.81;5034216;28;47373;-72
2022/01/11 10:45:23;;;;;;;;;4.00;4.00;;;;;22.48;36.36;103066.50;5046429;28;45536;-72
2022/01/11 10:47:52;;;;;;;;;7.00;4.75;;;;;22.56;36.23;103080.97;5053595;28;45453;-73
2022/01/11 10:50:28;;;;;;;;;4.50;4.50;;;;;22.54;36.27;103075.75;5054339;28;46029;-72
2022/01/11 10:52:59;;;;;;;;;5.50;4.75;;;;;22.48;35.85;103068.34;5054611;28;47144;-73
2022/01/11 10:55:27;;;;;;;;;4.50;4.50;;;;;22.54;35.63;103067.81;5037556;28;45554;-72
2022/01/11 10:57:57;;;;;;;;;3.50;3.50;;;;;22.24;35.57;103022.53;5049395;28;45488;-73
2022/01/11 11:00:29;;;;;;;;;4.25;4.25;;;;;22.53;35.82;103079.41;5046945;28;45292;-73
2022/01/11 11:02:59;;;;;;;;;6.00;4.50;;;;;22.52;36.03;103070.59;5050408;28;46315;-72
2022/01/11 11:05:32;;;;;;;;;5.00;5.00;;;;;22.51;36.26;103074.22;5038421;28;45382;-72
2022/01/11 11:08:11;;;;;;;;;4.50;4.00;;;;;22.51;36.21;103073.34;5051984;28;45321;-73
2022/01/11 11:10:46;;;;;;;;;4.00;4.00;;;;;22.50;35.99;103072.53;5040242;28;45588;-73
2022/01/11 11:13:46;;;;;;;;;3.00;3.00;;;;;22.50;36.16;103069.03;5032924;28;46151;-72
2022/01/11 11:16:17;;;;;;;;;6.50;4.50;;;;;22.49;35.67;103064.69;5039397;28;45296;-72
2022/01/11 11:18:57;;;;;;;;;4.00;4.00;;;;;22.40;36.35;103061.03;5044096;28;45544;-73
2022/01/11 11:21:38;;;;;;;;;4.25;4.00;;;;;22.49;35.91;103073.50;5040064;28;45782;-73
2022/01/11 11:24:06;;;;;;;;;6.25;5.00;;;;;22.47;35.99;103066.66;5048706;28;47252;-73
2022/01/11 11:26:37;;;;;;;;;3.75;3.00;;;;;22.45;35.69;103064.13;5051439;28;45426;-72
2022/01/11 11:29:04;;;;;;;;;5.00;5.00;;;;;22.43;35.90;103062.56;5038499;28;45374;-73